Concord, CA

3:01 PM PST on February 12, 2016 (GMT -0800)
Myrtle Drive | | Change Station
CLOSE
Current Station
Personal Weather Station
Location: Concord, CA
Elevation: 348 ft
Nearby Weather Stations

Elev 348 ft 37.96 °N, 121.95 °W | Updated 3 minutes ago

Partly Cloudy
Partly Cloudy
70.0 °F
Feels Like 70.0 °F
N
0.0
Wind Variable Wind from WSW
Gusts 3.0 mph

Today
High -- | Low -- °F
--% Chance of Precip.
Yesterday
High -- | Low -- °F
Precip. -- in
Pressure 30.12 in
Visibility 10.0 miles
Clouds Scattered Clouds 16000 ft
Dew Point 52 °F
Humidity 54%
Rainfall 0.00 in
Snow Depth Not available.
7:01 AM 5:42 PM
Waxing Crescent, 24% visible
METAR KCCR 122253Z 32006KT 10SM SCT160 21/09 A3016 RMK AO2 SLP199 T02060094
Pressure 30.12 in
Visibility 10.0 miles
Clouds Scattered Clouds 16000 ft
Dew Point 52 °F
Humidity 54%
Rainfall 0.00 in
Snow Depth Not available.
7:01 AM 5:42 PM
Waxing Crescent, 24% visible
METAR KCCR 122253Z 32006KT 10SM SCT160 21/09 A3016 RMK AO2 SLP199 T02060094

10-Day Weather Forecast

Almanac

Astronomy

Feb. 12, 2016 Rise Set
Actual Time
Civil Twilight
Nautical Twilight
Astronomical Twilight
Moon
Length of Visible Light
Length of Day
Tomorrow will be .
, % of the Moon is Illuminated

Today's Extremes

State Highs State Lows

Community

WunderPhotos

Upload Photos

1,892,431 photos uploaded!

WunderBlog® & News

Nearby

Air Quality

  Air Quality AQ Index Pollutant
Not available.

Snow Depth

Station Depth Elevation

Earthquake Activity

City Distance Mag. Time & Date
Minimum magnitude displayed is 2.5.

Coastal Water Temperatures

Place Temperature

Stations

Nearby Weather Stations

Station Location Temp. Windchill Dew Point Humidity Wind Precip. Elev Updated Type
                   

Watches & Warnings

There are currently no watches in effect.